FSIA Airport Information

Runway Information
Runway 13 Length 9800 ft width 151 ft
Elevation 10 ft Threshold 1000 ft Heading 125
Runway 31 Length 9800 ft Width 151 ft
Elevation 10 ft Threshold 1000 ft Heading 305
Airport Frequencies
Type APP Name APP Frequency 119.7 MHZ
Type TWR Name TWR Frequency 118.3 MHZ
Airport Navaids
Type VOR-DME Name Seychelles Frequency 113100 KHZ
Type NDB Name Seychelles Frequency 373 KHZ
Airport Weather Information & NOTAM
ADDS - METARS form results

(0806 UTC 30 May 2020)
Data provider http://aviationweather.gov/metar/data/
 
METAR text: FSIA 300800Z 11008KT 9999 FEW020 31/25 Q1011 NOSIG
Conditions at: FSIA (SEYCHELLES INTL , SC) observed 0800 UTC 30 May 2020
Temperature: 31.0°C (88°F)
Dewpoint: 25.0°C (77°F) [RH = 71%]
Pressure (altimeter): 29.85 inches Hg (1011.0 mb)
Winds: from the ESE (110 degrees) at 9 MPH (8 knots; 4.1 m/s)
Visibility: 6 or more miles (10+ km)
Ceiling: at least 12,000 feet AGL
Clouds: few clouds at 2000 feet AGL
Weather: no significant weather observed at this time

Forecast for: FSIA (SEYCHELLES INTL , SC)
Text: TAF FSIA 300502Z 3006/3106 13010KT 9999 SCT020
Forecast period: 0600 UTC 30 May 2020 to 0600 UTC 31 May 2020
Forecast type: FROM: standard forecast or significant change
Winds: from the SE (130 degrees) at 12 MPH (10 knots; 5.1 m/s)
Visibility: 6 or more miles 10+ km)
Ceiling: at least 12,000 feet AGL
Clouds: scattered clouds at 2000 feet AGL
Weather: no significant weather forecast for this period